Time;durP1;ratioP1;P1;durP2;ratioP2;P2;SDS_P1;SDS_P2;PMS_P1;PMS_P2;Temp;Humidity;BMP_temperature;BMP_pressure;BME280_temperature;BME280_humidity;BME280_pressure;Samples;Min_cycle;Max_cycle;Signal;HPM_P1;HPM_P2
2022/03/28 00:01:52;;;;;;;18.65;10.15;;;;;;;4.36;100.00;102648.19;5280335;28;20044;-76
2022/03/28 00:04:23;;;;;;;21.98;11.05;;;;;;;4.24;100.00;102638.94;5272238;28;20057;-76
2022/03/28 00:06:55;;;;;;;28.33;13.00;;;;;;;4.18;100.00;102647.13;5274805;28;20072;-76
2022/03/28 00:09:26;;;;;;;25.50;11.80;;;;;;;4.05;100.00;102644.06;5269952;28;20095;-76
2022/03/28 00:11:57;;;;;;;21.92;12.40;;;;;;;3.93;100.00;102639.25;5274466;28;20026;-76
2022/03/28 00:14:29;;;;;;;22.70;13.10;;;;;;;3.60;100.00;102629.81;5272614;28;20423;-76
2022/03/28 00:17:00;;;;;;;19.25;10.35;;;;;;;3.58;100.00;102620.22;5273990;28;20032;-77
2022/03/28 00:19:31;;;;;;;18.42;10.10;;;;;;;3.55;100.00;102615.06;5270869;28;20022;-77
2022/03/28 00:22:03;;;;;;;16.10;10.30;;;;;;;3.55;100.00;102615.91;5272182;28;20035;-77
2022/03/28 00:24:34;;;;;;;14.98;8.50;;;;;;;3.62;100.00;102619.19;5279193;28;20579;-77
2022/03/28 00:27:06;;;;;;;23.48;11.93;;;;;;;3.43;100.00;102615.47;5271679;28;20420;-77
2022/03/28 00:29:37;;;;;;;26.00;11.75;;;;;;;3.42;100.00;102606.72;5275613;28;20022;-77
2022/03/28 00:32:08;;;;;;;21.48;9.57;;;;;;;3.45;100.00;102603.94;5252999;28;20037;-77
2022/03/28 00:34:40;;;;;;;19.38;9.40;;;;;;;3.49;100.00;102605.59;5273291;28;20021;-77
2022/03/28 00:37:12;;;;;;;17.55;10.02;;;;;;;3.46;100.00;102596.91;5279503;28;20029;-76
2022/03/28 00:39:43;;;;;;;25.48;10.57;;;;;;;3.00;100.00;102580.88;5281672;28;20378;-77
2022/03/28 00:42:14;;;;;;;22.25;10.15;;;;;;;3.06;100.00;102593.84;5264157;28;20162;-77
2022/03/28 00:44:46;;;;;;;17.10;9.07;;;;;;;3.39;100.00;102581.28;5280538;28;20570;-76
2022/03/28 00:47:17;;;;;;;21.58;9.27;;;;;;;3.32;100.00;102582.41;5281076;28;20132;-76
2022/03/28 00:49:48;;;;;;;26.20;10.30;;;;;;;3.75;100.00;102586.19;5281147;28;20032;-77
2022/03/28 00:52:20;;;;;;;27.55;11.95;;;;;;;3.88;100.00;102589.22;5279694;28;20045;-76
2022/03/28 00:54:51;;;;;;;35.15;11.73;;;;;;;3.99;100.00;102588.84;5276560;28;20033;-77
2022/03/28 00:57:23;;;;;;;22.20;10.68;;;;;;;3.96;100.00;102570.47;5269953;28;20565;-77
2022/03/28 00:59:54;;;;;;;23.58;11.68;;;;;;;3.90;100.00;102594.47;5267539;28;20136;-77
2022/03/28 01:02:26;;;;;;;24.77;11.85;;;;;;;3.51;100.00;102582.63;5274590;28;20125;-77
2022/03/28 01:04:58;;;;;;;23.27;10.60;;;;;;;3.43;100.00;102570.63;5272388;28;20021;-77
2022/03/28 01:07:29;;;;;;;27.23;10.02;;;;;;;3.34;100.00;102564.75;5273358;28;20040;-77
2022/03/28 01:10:01;;;;;;;24.33;11.07;;;;;;;3.32;100.00;102569.22;5273466;28;20393;-77
2022/03/28 01:12:33;;;;;;;20.77;9.40;;;;;;;3.15;100.00;102564.53;5271377;28;20037;-78
2022/03/28 01:15:04;;;;;;;21.67;10.20;;;;;;;3.18;100.00;102564.44;5270088;28;20033;-77
2022/03/28 01:20:31;;;;;;;28.00;11.95;;;;;;;3.07;100.00;102566.56;5280367;28;20041;-77
2022/03/28 01:23:03;;;;;;;26.67;10.68;;;;;;;2.97;100.00;102555.47;5277595;28;20449;-77
2022/03/28 01:25:35;;;;;;;23.23;11.93;;;;;;;2.95;100.00;102562.56;5277095;28;20048;-77
2022/03/28 01:28:06;;;;;;;29.63;12.35;;;;;;;2.87;100.00;102558.47;5277831;28;20056;-77
2022/03/28 01:30:37;;;;;;;23.08;11.65;;;;;;;2.82;100.00;102548.94;5262393;28;20024;-77
2022/03/28 01:33:09;;;;;;;26.85;11.80;;;;;;;2.79;100.00;102549.03;5278909;28;20488;-77
2022/03/28 01:35:42;;;;;;;19.25;9.98;;;;;;;2.59;100.00;102543.53;5279937;28;20440;-77
2022/03/28 01:38:16;;;;;;;27.95;11.70;;;;;;;2.63;100.00;102543.41;5277991;28;20791;-77
2022/03/28 01:40:50;;;;;;;20.23;10.10;;;;;;;2.51;100.00;102537.66;5274648;28;20110;-77
2022/03/28 01:43:22;;;;;;;19.80;9.00;;;;;;;2.62;100.00;102528.50;5266318;28;20030;-77
2022/03/28 01:45:53;;;;;;;17.42;10.07;;;;;;;2.50;100.00;102521.00;5272880;28;20029;-79
2022/03/28 01:48:24;;;;;;;16.63;9.68;;;;;;;2.90;100.00;102538.13;5250727;28;20052;-78
2022/03/28 01:50:55;;;;;;;25.55;10.77;;;;;;;2.71;100.00;102543.16;5268590;28;20078;-78
2022/03/28 01:53:27;;;;;;;20.58;10.15;;;;;;;3.04;100.00;102535.03;5272545;28;20052;-78
2022/03/28 01:55:58;;;;;;;27.20;12.18;;;;;;;3.20;100.00;102540.63;5270801;28;20104;-78
2022/03/28 01:58:29;;;;;;;25.73;12.15;;;;;;;3.21;100.00;102537.97;5274826;28;20033;-78
2022/03/28 02:01:01;;;;;;;27.15;12.77;;;;;;;3.22;100.00;102541.44;5265180;28;20080;-78
2022/03/28 02:03:32;;;;;;;24.42;11.98;;;;;;;3.15;100.00;102530.25;5276106;28;20043;-77
2022/03/28 02:06:05;;;;;;;22.50;10.23;;;;;;;3.21;100.00;102529.19;5258264;28;20080;-78
2022/03/28 02:08:37;;;;;;;19.60;10.63;;;;;;;3.06;100.00;102529.72;5280631;28;20028;-78
2022/03/28 02:11:08;;;;;;;21.02;10.32;;;;;;;2.87;100.00;102518.94;5278135;28;20489;-78
2022/03/28 02:13:39;;;;;;;20.90;9.55;;;;;;;2.96;100.00;102531.78;5277687;28;20493;-78
2022/03/28 02:16:11;;;;;;;21.00;9.98;;;;;;;2.75;100.00;102536.00;5281479;28;20370;-78
2022/03/28 02:18:43;;;;;;;22.83;10.43;;;;;;;2.53;100.00;102525.31;5278452;28;20025;-78
2022/03/28 02:21:14;;;;;;;24.83;11.77;;;;;;;2.21;100.00;102522.78;5273776;28;20100;-78
2022/03/28 02:23:45;;;;;;;19.25;10.18;;;;;;;2.24;100.00;102509.53;5273276;28;20442;-78
2022/03/28 02:26:16;;;;;;;29.25;11.32;;;;;;;1.87;100.00;102507.13;5279255;28;20401;-78
2022/03/28 02:28:48;;;;;;;21.05;10.00;;;;;;;2.40;100.00;102507.28;5256019;28;20442;-78
2022/03/28 02:31:19;;;;;;;24.35;10.38;;;;;;;2.40;100.00;102515.16;5279248;28;20123;-78
2022/03/28 02:33:50;;;;;;;35.33;12.68;;;;;;;2.31;100.00;102510.16;5277569;28;20017;-78
2022/03/28 02:36:21;;;;;;;24.05;12.10;;;;;;;2.31;100.00;102509.31;5258848;28;20033;-78
2022/03/28 02:38:53;;;;;;;33.60;13.35;;;;;;;2.26;100.00;102502.44;5276937;28;20013;-78
2022/03/28 02:41:24;;;;;;;22.88;10.68;;;;;;;2.26;100.00;102504.19;5273559;28;20492;-78
2022/03/28 02:43:56;;;;;;;26.50;12.15;;;;;;;2.27;100.00;102498.88;5272349;28;20032;-78
2022/03/28 02:46:27;;;;;;;30.30;12.38;;;;;;;2.38;100.00;102498.53;5257168;28;20057;-78
2022/03/28 02:48:58;;;;;;;31.75;12.05;;;;;;;2.03;100.00;102495.25;5280942;28;20439;-79
2022/03/28 02:51:30;;;;;;;25.05;10.80;;;;;;;2.25;100.00;102486.69;5279519;28;20037;-78
2022/03/28 02:54:01;;;;;;;23.60;10.68;;;;;;;1.89;100.00;102494.78;5265469;28;20112;-78
2022/03/28 02:56:32;;;;;;;24.85;11.38;;;;;;;1.87;100.00;102480.81;5280702;28;20043;-78
2022/03/28 02:59:04;;;;;;;21.45;11.13;;;;;;;1.88;100.00;102490.44;5282722;28;20025;-78
2022/03/28 03:01:35;;;;;;;23.77;10.57;;;;;;;2.22;100.00;102479.72;5283830;28;20460;-78
2022/03/28 03:04:06;;;;;;;25.10;10.73;;;;;;;2.34;100.00;102481.13;5281941;28;20057;-78
2022/03/28 03:06:38;;;;;;;25.05;10.93;;;;;;;2.50;100.00;102473.56;5283484;28;20047;-78
2022/03/28 03:09:09;;;;;;;27.08;10.77;;;;;;;2.41;100.00;102471.25;5283674;28;20033;-78
2022/03/28 03:11:40;;;;;;;25.30;11.60;;;;;;;2.39;100.00;102480.97;5283524;28;20037;-78
2022/03/28 03:14:11;;;;;;;22.77;11.63;;;;;;;2.62;100.00;102477.59;5283026;28;20029;-78
2022/03/28 03:16:43;;;;;;;22.63;12.65;;;;;;;2.77;100.00;102460.38;5283411;28;20170;-78
2022/03/28 03:19:14;;;;;;;32.55;12.52;;;;;;;2.77;100.00;102458.63;5277810;28;20036;-78
2022/03/28 03:21:46;;;;;;;26.77;12.68;;;;;;;2.92;100.00;102457.22;5281934;28;20096;-78
2022/03/28 03:24:17;;;;;;;32.60;13.80;;;;;;;3.09;100.00;102475.09;5283629;28;20120;-78
2022/03/28 03:26:48;;;;;;;26.13;12.73;;;;;;;2.95;100.00;102466.81;5283564;28;20315;-78
2022/03/28 03:29:19;;;;;;;24.50;12.40;;;;;;;2.78;100.00;102470.88;5282382;28;20548;-78
2022/03/28 03:31:51;;;;;;;24.00;11.40;;;;;;;2.78;100.00;102462.97;5283375;28;20434;-78
2022/03/28 03:34:22;;;;;;;28.77;11.40;;;;;;;2.69;100.00;102460.66;5282611;28;20028;-79
2022/03/28 03:36:53;;;;;;;26.58;12.98;;;;;;;2.22;100.00;102455.19;5283180;28;20143;-78
2022/03/28 03:39:25;;;;;;;24.90;12.00;;;;;;;2.13;100.00;102450.22;5282836;28;20041;-78
2022/03/28 03:41:56;;;;;;;23.20;11.00;;;;;;;2.15;100.00;102451.00;5283041;28;20501;-79
2022/03/28 03:44:28;;;;;;;22.25;11.68;;;;;;;2.08;100.00;102456.47;5282115;28;20040;-78
2022/03/28 03:46:59;;;;;;;29.85;12.57;;;;;;;2.02;100.00;102456.66;5283124;28;20024;-78
2022/03/28 03:49:30;;;;;;;25.65;12.55;;;;;;;1.77;100.00;102453.06;5282163;28;20060;-78
2022/03/28 03:52:02;;;;;;;34.95;14.85;;;;;;;1.83;100.00;102450.25;5282576;28;20374;-78
2022/03/28 03:54:33;;;;;;;27.52;13.00;;;;;;;1.77;100.00;102438.16;5282251;28;20060;-78
2022/03/28 03:57:04;;;;;;;33.00;12.10;;;;;;;1.81;100.00;102431.03;5282165;28;20115;-78
2022/03/28 03:59:36;;;;;;;35.78;14.93;;;;;;;1.78;100.00;102439.84;5282947;28;20154;-79
2022/03/28 04:02:08;;;;;;;32.63;13.77;;;;;;;1.70;100.00;102432.19;5280348;28;20124;-78
2022/03/28 04:04:40;;;;;;;34.78;15.20;;;;;;;1.76;100.00;102431.16;5282081;28;20044;-78
2022/03/28 04:07:11;;;;;;;36.35;15.23;;;;;;;1.67;100.00;102434.06;5282166;28;20021;-78
2022/03/28 04:09:42;;;;;;;28.98;12.63;;;;;;;1.50;100.00;102435.41;5281181;28;20038;-78
2022/03/28 04:12:14;;;;;;;41.35;13.98;;;;;;;1.61;100.00;102431.59;5281934;28;20044;-78
2022/03/28 04:14:45;;;;;;;23.17;12.00;;;;;;;1.06;100.00;102423.53;5279050;28;20075;-78
2022/03/28 04:17:17;;;;;;;28.13;12.38;;;;;;;1.16;100.00;102416.25;5281884;28;20033;-78
2022/03/28 04:19:48;;;;;;;23.23;11.98;;;;;;;0.96;100.00;102417.66;5290664;28;20031;-78
2022/03/28 04:22:19;;;;;;;26.85;12.63;;;;;;;0.94;100.00;102414.22;5281172;28;20033;-78
2022/03/28 04:24:51;;;;;;;25.80;11.85;;;;;;;0.89;100.00;102419.59;5283369;28;20079;-78
2022/03/28 04:27:22;;;;;;;32.05;13.35;;;;;;;0.94;100.00;102411.59;5283861;28;20041;-78
2022/03/28 04:29:54;;;;;;;30.55;13.63;;;;;;;1.00;100.00;102419.31;5283619;28;20095;-78
2022/03/28 04:32:25;;;;;;;29.85;12.95;;;;;;;0.92;100.00;102426.53;5282358;28;20029;-78
2022/03/28 04:34:56;;;;;;;30.23;11.98;;;;;;;0.86;100.00;102424.94;5264657;28;20029;-78
2022/03/28 04:37:32;;;;;;;26.95;12.07;;;;;;;0.88;100.00;102422.28;5282254;28;20494;-78
2022/03/28 04:40:05;;;;;;;37.25;12.93;;;;;;;0.89;100.00;102424.84;5280139;28;20041;-78
2022/03/28 04:42:37;;;;;;;33.13;12.40;;;;;;;0.78;100.00;102423.44;5280139;28;20476;-78
2022/03/28 04:45:09;;;;;;;29.13;12.23;;;;;;;0.61;100.00;102414.19;5266222;28;20058;-78
2022/03/28 04:47:40;;;;;;;29.58;11.65;;;;;;;0.59;100.00;102421.25;5290935;28;20025;-78
2022/03/28 04:50:12;;;;;;;28.70;10.30;;;;;;;0.72;100.00;102422.69;5288262;28;20029;-78
2022/03/28 04:52:43;;;;;;;22.50;10.10;;;;;;;1.09;100.00;102410.31;5280128;28;20029;-77
2022/03/28 04:55:14;;;;;;;28.38;11.63;;;;;;;1.41;100.00;102417.28;5281779;28;20031;-78
2022/03/28 04:57:46;;;;;;;31.92;13.23;;;;;;;1.63;100.00;102419.25;5278011;28;20060;-78
2022/03/28 05:00:17;;;;;;;34.80;13.55;;;;;;;1.59;100.00;102421.13;5282610;28;20163;-78
2022/03/28 05:02:49;;;;;;;29.40;12.35;;;;;;;1.61;100.00;102424.56;5281381;28;20123;-78
2022/03/28 05:05:20;;;;;;;47.72;17.65;;;;;;;1.31;100.00;102427.22;5278968;28;20033;-79
2022/03/28 05:07:51;;;;;;;33.72;14.40;;;;;;;1.20;100.00;102421.38;5281542;28;20024;-78
2022/03/28 05:10:23;;;;;;;36.65;14.32;;;;;;;1.28;100.00;102424.66;5261572;28;20429;-78
2022/03/28 05:12:54;;;;;;;40.65;15.93;;;;;;;1.72;100.00;102429.53;5257288;28;20051;-78
2022/03/28 05:15:25;;;;;;;44.70;15.27;;;;;;;1.19;100.00;102409.13;5275352;28;20053;-78
2022/03/28 05:17:58;;;;;;;43.97;15.20;;;;;;;1.12;100.00;102415.47;5276138;28;20032;-78
2022/03/28 05:20:29;;;;;;;36.80;14.75;;;;;;;1.06;100.00;102413.03;5259288;28;20040;-78
2022/03/28 05:23:00;;;;;;;42.33;14.95;;;;;;;0.98;100.00;102423.72;5279799;28;20580;-78
2022/03/28 05:25:32;;;;;;;32.78;13.82;;;;;;;0.98;100.00;102422.88;5281030;28;20459;-78
2022/03/28 05:28:03;;;;;;;38.08;15.65;;;;;;;0.88;100.00;102427.53;5279890;28;20025;-78
2022/03/28 05:30:34;;;;;;;43.25;16.05;;;;;;;0.84;100.00;102416.25;5281166;28;20029;-78
2022/03/28 05:33:07;;;;;;;47.40;14.32;;;;;;;0.79;100.00;102412.88;5262252;28;20433;-78
2022/03/28 05:35:42;;;;;;;41.72;15.68;;;;;;;0.79;100.00;102412.00;5281041;28;20029;-78
2022/03/28 05:38:13;;;;;;;51.10;18.00;;;;;;;0.79;100.00;102417.25;5280079;28;20789;-78
2022/03/28 05:40:44;;;;;;;42.92;16.27;;;;;;;0.72;100.00;102419.22;5280911;28;23000;-78
2022/03/28 05:43:16;;;;;;;45.40;17.25;;;;;;;0.75;100.00;102419.97;5281158;28;20110;-78
2022/03/28 05:45:48;;;;;;;42.05;16.23;;;;;;;0.83;100.00;102418.91;5269833;28;20415;-76
2022/03/28 05:48:19;;;;;;;40.97;16.23;;;;;;;0.83;100.00;102414.50;5279915;28;20136;-76
2022/03/28 05:50:51;;;;;;;37.20;14.57;;;;;;;0.52;100.00;102402.16;5279899;28;21531;-76
2022/03/28 05:53:22;;;;;;;41.72;16.35;;;;;;;0.81;100.00;102399.69;5279277;28;20075;-77
2022/03/28 05:55:53;;;;;;;35.22;13.70;;;;;;;0.93;100.00;102394.13;5280828;28;20048;-77
2022/03/28 05:58:25;;;;;;;43.00;17.88;;;;;;;1.03;100.00;102398.19;5261210;28;20049;-77
2022/03/28 06:00:58;;;;;;;48.45;18.33;;;;;;;1.10;100.00;102383.13;5262408;28;20686;-77
2022/03/28 06:03:29;;;;;;;37.83;16.15;;;;;;;1.27;100.00;102388.75;5278070;28;20424;-77
2022/03/28 06:06:03;;;;;;;32.80;15.50;;;;;;;1.42;100.00;102395.34;5280080;28;20021;-77
2022/03/28 06:08:34;;;;;;;36.85;15.48;;;;;;;1.59;100.00;102388.72;5280024;28;20052;-77
2022/03/28 06:11:06;;;;;;;36.08;15.68;;;;;;;1.85;100.00;102403.69;5278941;28;20025;-77
2022/03/28 06:13:37;;;;;;;44.40;17.23;;;;;;;2.02;100.00;102411.06;5273651;28;20386;-78
2022/03/28 06:16:09;;;;;;;60.58;20.55;;;;;;;2.04;100.00;102404.84;5272110;28;20086;-78
2022/03/28 06:18:41;;;;;;;42.88;18.08;;;;;;;2.22;100.00;102398.09;5253297;28;20025;-78
2022/03/28 06:21:12;;;;;;;40.90;16.63;;;;;;;2.22;100.00;102387.56;5265901;28;20056;-78
2022/03/28 06:23:44;;;;;;;45.92;17.13;;;;;;;2.41;100.00;102394.88;5260589;28;20021;-78
2022/03/28 06:26:16;;;;;;;38.45;16.55;;;;;;;2.51;100.00;102396.28;5260097;28;20029;-78
2022/03/28 06:28:49;;;;;;;57.22;20.13;;;;;;;2.59;100.00;102398.66;5241258;28;20104;-78
2022/03/28 06:31:21;;;;;;;57.17;20.88;;;;;;;2.77;100.00;102397.13;5270935;28;20182;-78
2022/03/28 06:33:57;;;;;;;53.38;21.20;;;;;;;2.84;100.00;102396.03;5260073;28;20022;-77
2022/03/28 06:36:30;;;;;;;57.80;20.48;;;;;;;3.00;100.00;102397.19;5260297;28;20112;-77
2022/03/28 06:39:02;;;;;;;42.75;19.17;;;;;;;2.73;100.00;102392.91;5242120;28;20497;-78
2022/03/28 06:41:34;;;;;;;51.90;20.23;;;;;;;2.80;100.00;102405.78;5260720;28;20010;-77
2022/03/28 06:44:07;;;;;;;54.58;20.63;;;;;;;3.67;100.00;102402.66;5241743;28;20018;-77
2022/03/28 06:46:40;;;;;;;56.75;22.25;;;;;;;4.35;100.00;102403.44;5263327;28;20037;-77
2022/03/28 06:49:12;;;;;;;53.97;25.77;;;;;;;4.87;100.00;102406.50;5285028;28;20188;-77
2022/03/28 06:51:43;;;;;;;59.08;23.55;;;;;;;5.28;100.00;102406.41;5285116;28;20120;-77
2022/03/28 06:54:16;;;;;;;62.63;23.20;;;;;;;5.63;100.00;102403.09;5284860;28;20021;-78
2022/03/28 06:56:47;;;;;;;57.50;19.83;;;;;;;6.01;100.00;102398.63;5285077;28;20088;-77
2022/03/28 06:59:19;;;;;;;45.85;16.65;;;;;;;6.42;100.00;102395.72;5283208;28;20687;-78
2022/03/28 07:01:51;;;;;;;42.90;15.38;;;;;;;6.98;100.00;102387.56;5284495;28;20029;-78
2022/03/28 07:04:23;;;;;;;35.22;14.50;;;;;;;7.43;100.00;102391.31;5284537;28;20023;-78
2022/03/28 07:06:55;;;;;;;25.52;11.23;;;;;;;8.30;100.00;102380.19;5284401;28;20512;-78
2022/03/28 07:09:26;;;;;;;33.55;12.13;;;;;;;9.11;100.00;102391.38;5283786;28;20032;-78
2022/03/28 07:11:59;;;;;;;30.52;11.02;;;;;;;9.56;100.00;102395.63;5263330;28;20060;-78
2022/03/28 07:14:30;;;;;;;24.83;9.40;;;;;;;10.26;100.00;102381.31;5280458;28;20116;-78
2022/03/28 07:17:02;;;;;;;24.27;9.90;;;;;;;10.92;100.00;102374.16;5266274;28;20385;-78
2022/03/28 07:19:33;;;;;;;27.48;9.75;;;;;;;11.45;100.00;102362.44;5284574;28;20029;-78
2022/03/28 07:22:05;;;;;;;25.02;9.70;;;;;;;12.45;100.00;102352.34;5265638;28;20430;-78
2022/03/28 07:24:36;;;;;;;27.05;9.55;;;;;;;12.87;100.00;102347.31;5283685;28;20036;-78
2022/03/28 07:27:07;;;;;;;21.42;8.98;;;;;;;13.43;100.00;102341.94;5283697;28;20029;-78
2022/03/28 07:29:39;;;;;;;28.48;11.20;;;;;;;13.90;100.00;102341.69;5283847;28;20381;-78
2022/03/28 07:32:10;;;;;;;24.77;10.80;;;;;;;14.84;100.00;102331.03;5283814;28;20444;-78
2022/03/28 07:34:41;;;;;;;28.15;10.68;;;;;;;14.35;100.00;102344.16;5284002;28;20489;-78
2022/03/28 07:37:13;;;;;;;25.83;9.98;;;;;;;14.63;100.00;102336.44;5283898;28;20025;-78
2022/03/28 07:39:45;;;;;;;24.50;10.27;;;;;;;14.97;100.00;102327.28;5283535;28;20045;-78
2022/03/28 07:42:16;;;;;;;25.40;10.27;;;;;;;15.78;100.00;102325.38;5265839;28;20017;-78
2022/03/28 07:44:48;;;;;;;20.55;10.48;;;;;;;16.29;100.00;102318.00;5283905;28;20474;-78
2022/03/28 07:47:19;;;;;;;25.23;11.43;;;;;;;17.53;100.00;102320.47;5284277;28;20028;-79
2022/03/28 07:49:52;;;;;;;25.38;10.90;;;;;;;17.18;100.00;102314.00;5283411;28;20021;-78
2022/03/28 07:52:23;;;;;;;28.75;11.15;;;;;;;17.97;99.53;102300.84;5283597;28;20033;-79
2022/03/28 07:54:55;;;;;;;20.98;10.88;;;;;;;18.29;88.64;102301.13;5262865;28;20092;-78
2022/03/28 07:57:27;;;;;;;25.13;11.18;;;;;;;18.65;81.37;102311.81;5262469;28;20030;-78
2022/03/28 07:59:58;;;;;;;22.98;10.38;;;;;;;18.00;78.40;102312.19;5262225;28;20493;-77
2022/03/28 08:02:30;;;;;;;23.55;10.38;;;;;;;19.73;80.13;102300.38;5269422;28;20040;-78
2022/03/28 08:05:02;;;;;;;23.90;12.38;;;;;;;19.70;74.30;102308.81;5283241;28;20021;-78
2022/03/28 08:07:34;;;;;;;22.23;11.90;;;;;;;19.87;66.75;102307.00;5265550;28;20021;-78
2022/03/28 08:10:06;;;;;;;27.77;11.55;;;;;;;19.71;61.32;102317.81;5283119;28;20028;-78
2022/03/28 08:12:38;;;;;;;28.00;11.88;;;;;;;20.23;55.63;102303.09;5262518;28;20029;-79
2022/03/28 08:15:11;;;;;;;26.98;11.15;;;;;;;20.39;52.69;102305.81;5283129;28;21284;-79
2022/03/28 08:17:42;;;;;;;23.65;11.43;;;;;;;20.82;54.62;102297.41;5283327;28;20021;-80
2022/03/28 08:20:14;;;;;;;21.83;11.23;;;;;;;21.81;52.04;102295.00;5265118;28;20013;-79
2022/03/28 08:22:49;;;;;;;23.33;11.25;;;;;;;21.81;49.50;102292.28;5283121;28;20029;-78
2022/03/28 08:25:22;;;;;;;20.13;11.45;;;;;;;21.67;48.67;102289.34;5282708;28;20472;-78
2022/03/28 08:27:53;;;;;;;22.20;12.15;;;;;;;22.76;46.29;102286.28;5282769;28;20017;-78
2022/03/28 08:30:24;;;;;;;23.60;12.52;;;;;;;24.17;42.77;102285.94;5284418;28;20347;-78
2022/03/28 08:32:56;;;;;;;23.10;12.55;;;;;;;23.28;44.87;102284.47;5265016;28;20381;-79
2022/03/28 08:35:27;;;;;;;23.98;11.85;;;;;;;23.37;45.31;102282.47;5284130;28;20115;-79
2022/03/28 08:37:59;;;;;;;24.75;13.05;;;;;;;24.03;42.37;102281.41;5282672;28;20075;-79
2022/03/28 08:40:30;;;;;;;21.10;12.32;;;;;;;24.81;40.26;102282.16;5281899;28;20048;-79
2022/03/28 08:43:04;;;;;;;23.35;12.68;;;;;;;23.60;39.68;102274.94;5272356;28;20029;-79
2022/03/28 08:45:38;;;;;;;23.90;12.27;;;;;;;25.44;38.89;102275.69;5249092;28;20033;-79
2022/03/28 08:48:12;;;;;;;21.88;12.40;;;;;;;25.35;38.21;102274.19;5282250;28;20114;-79
2022/03/28 08:50:51;;;;;;;20.83;12.40;;;;;;;26.53;37.53;102271.69;5282843;28;20017;-79
2022/03/28 08:53:22;;;;;;;21.75;11.73;;;;;;;25.48;36.74;102275.06;5282017;28;20037;-79
2022/03/28 08:55:54;;;;;;;20.88;13.68;;;;;;;26.10;35.84;102277.63;5282979;28;20016;-79
2022/03/28 08:58:25;;;;;;;20.80;14.10;;;;;;;27.49;32.82;102259.06;5282040;28;20041;-79
2022/03/28 09:00:57;;;;;;;25.17;15.00;;;;;;;27.57;33.00;102270.81;5282537;28;20052;-79
2022/03/28 09:03:47;;;;;;;22.98;13.90;;;;;;;28.53;33.85;102265.94;5261442;28;20271;-78
2022/03/28 09:06:33;;;;;;;26.30;14.95;;;;;;;28.69;33.83;102262.63;5282256;28;20473;-79
2022/03/28 09:09:26;;;;;;;24.45;15.23;;;;;;;29.06;32.40;102267.22;5281734;28;20021;-79
2022/03/28 09:12:08;;;;;;;27.08;15.55;;;;;;;29.81;31.30;102265.94;5281567;28;20037;-79
2022/03/28 09:14:40;;;;;;;28.63;15.10;;;;;;;29.31;29.06;102253.34;5281861;28;20037;-79
2022/03/28 09:17:15;;;;;;;27.55;15.80;;;;;;;30.14;28.60;102263.44;5282291;28;20025;-79
2022/03/28 09:19:52;;;;;;;23.98;15.98;;;;;;;29.26;28.65;102254.09;5282083;28;20024;-79
2022/03/28 09:22:29;;;;;;;37.75;17.13;;;;;;;30.65;28.37;102257.41;5259328;28;20014;-80
2022/03/28 09:25:12;;;;;;;22.58;14.50;;;;;;;31.49;27.93;102251.34;5263122;28;20508;-79
2022/03/28 09:27:44;;;;;;;51.38;16.77;;;;;;;30.95;26.83;102243.44;5262971;28;20155;-79
2022/03/28 09:30:18;;;;;;;27.30;14.73;;;;;;;31.40;26.59;102248.13;5281446;28;20487;-79
2022/03/28 09:32:52;;;;;;;20.50;14.23;;;;;;;31.73;26.01;102248.41;5281928;28;20041;-80
2022/03/28 09:35:26;;;;;;;26.35;14.80;;;;;;;31.26;26.72;102247.59;5263812;28;20094;-77
2022/03/28 09:38:08;;;;;;;38.28;15.80;;;;;;;32.84;25.66;102241.13;5281622;28;20100;-78
2022/03/28 09:40:41;;;;;;;25.58;14.25;;;;;;;32.82;24.37;102241.41;5263622;28;20056;-79
2022/03/28 09:43:19;;;;;;;24.17;14.65;;;;;;;33.37;24.84;102235.91;5280928;28;20032;-79
2022/03/28 09:45:55;;;;;;;19.27;14.88;;;;;;;31.72;26.34;102238.47;5281862;28;20029;-79
2022/03/28 09:48:28;;;;;;;25.95;15.75;;;;;;;32.95;24.79;102234.63;5281688;28;20025;-79
2022/03/28 09:51:05;;;;;;;25.05;15.95;;;;;;;34.09;22.98;102231.75;5281939;28;20025;-79
2022/03/28 09:53:38;;;;;;;23.63;15.18;;;;;;;33.16;23.33;102227.41;5271565;28;20033;-80
2022/03/28 09:56:11;;;;;;;23.40;15.52;;;;;;;34.07;22.24;102223.69;5277331;28;20045;-81
2022/03/28 09:58:56;;;;;;;22.45;17.60;;;;;;;34.83;21.69;102221.56;5277293;28;20040;-81
2022/03/28 10:01:32;;;;;;;25.02;16.85;;;;;;;34.80;21.31;102217.41;5281404;28;20446;-80
2022/03/28 10:04:08;;;;;;;23.58;17.60;;;;;;;35.35;21.00;102212.22;5261376;28;20523;-80
2022/03/28 10:06:39;;;;;;;25.73;19.10;;;;;;;33.56;22.01;102211.44;5260639;28;20501;-79
2022/03/28 10:09:10;;;;;;;27.60;19.10;;;;;;;35.13;20.31;102215.22;5264803;28;20124;-79
2022/03/28 10:11:43;;;;;;;26.10;18.83;;;;;;;35.48;20.03;102205.28;5282195;28;20031;-80
2022/03/28 10:14:15;;;;;;;26.00;18.00;;;;;;;35.66;20.51;102201.13;5280798;28;20045;-79
2022/03/28 10:16:47;;;;;;;25.38;17.73;;;;;;;36.98;19.88;102209.22;5281638;28;20346;-79
2022/03/28 10:19:19;;;;;;;20.85;17.55;;;;;;;36.98;18.85;102200.06;5281444;28;20036;-80
2022/03/28 10:21:51;;;;;;;24.55;18.00;;;;;;;35.97;19.66;102204.66;5282615;28;20504;-80
2022/03/28 10:24:25;;;;;;;24.23;18.88;;;;;;;35.83;19.93;102200.00;5285079;28;20020;-80
2022/03/28 10:26:58;;;;;;;20.73;17.55;;;;;;;37.09;18.78;102201.63;5284851;28;20076;-80
2022/03/28 10:29:41;;;;;;;22.33;17.30;;;;;;;37.78;18.46;102190.47;5284746;28;20021;-79
2022/03/28 10:32:23;;;;;;;19.08;15.75;;;;;;;39.13;18.03;102185.63;5265796;28;20112;-80
2022/03/28 10:35:01;;;;;;;20.10;16.17;;;;;;;37.67;17.92;102181.41;5284031;28;20040;-79
2022/03/28 10:37:37;;;;;;;22.17;16.25;;;;;;;37.95;18.05;102174.13;5284421;28;20029;-80
2022/03/28 10:40:34;;;;;;;20.08;17.08;;;;;;;39.17;18.41;102161.56;5284220;28;20041;-80
2022/03/28 10:43:11;;;;;;;20.58;18.08;;;;;;;36.59;18.55;102162.78;5273714;28;20549;-80
2022/03/28 10:45:59;;;;;;;20.67;17.08;;;;;;;38.91;18.32;102155.56;5268165;28;20120;-79
2022/03/28 10:48:39;;;;;;;23.58;18.08;;;;;;;38.27;17.70;102158.72;5284685;28;20160;-79
2022/03/28 10:51:13;;;;;;;21.80;17.45;;;;;;;36.44;17.71;102143.41;5284537;28;20388;-79
2022/03/28 10:53:47;;;;;;;21.75;16.63;;;;;;;37.36;17.38;102148.31;5266185;28;20028;-79
2022/03/28 10:56:20;;;;;;;22.05;19.35;;;;;;;37.12;17.06;102147.38;5284755;28;20014;-79
2022/03/28 10:59:11;;;;;;;19.42;17.05;;;;;;;38.63;17.37;102146.28;5283864;28;20513;-79
2022/03/28 11:01:46;;;;;;;21.48;18.30;;;;;;;35.53;18.37;102144.25;5284221;28;20087;-79
2022/03/28 11:04:19;;;;;;;20.88;18.02;;;;;;;36.23;17.88;102146.28;5265363;28;20537;-79
2022/03/28 11:07:04;;;;;;;24.35;18.50;;;;;;;37.54;18.10;102146.75;5284519;28;20417;-79
2022/03/28 11:09:50;;;;;;;18.33;16.33;;;;;;;38.61;16.76;102134.56;5266214;28;20442;-79
2022/03/28 11:12:38;;;;;;;18.58;16.58;;;;;;;39.65;16.85;102138.94;5283758;28;20369;-79
2022/03/28 11:15:15;;;;;;;19.25;15.95;;;;;;;37.93;17.25;102129.06;5284010;28;20040;-79
2022/03/28 11:18:03;;;;;;;24.80;17.15;;;;;;;39.08;16.41;102127.13;5265446;28;20036;-79
2022/03/28 11:20:45;;;;;;;18.13;16.23;;;;;;;39.23;16.33;102123.25;5281690;28;20099;-79
2022/03/28 11:23:18;;;;;;;18.17;16.05;;;;;;;38.44;16.02;102133.13;5262448;28;20455;-79
2022/03/28 11:25:54;;;;;;;23.20;16.85;;;;;;;39.32;15.77;102122.22;5281458;28;20017;-79
2022/03/28 11:28:28;;;;;;;23.08;16.58;;;;;;;38.88;15.46;102111.56;5282824;28;20083;-79
2022/03/28 11:31:08;;;;;;;19.67;14.33;;;;;;;39.42;16.20;102112.84;5284380;28;20033;-79
2022/03/28 11:33:43;;;;;;;18.33;15.43;;;;;;;38.97;15.76;102104.16;5283510;28;20056;-79
2022/03/28 11:36:18;;;;;;;22.15;14.02;;;;;;;37.73;16.62;102101.47;5284192;28;20029;-79
2022/03/28 11:38:52;;;;;;;18.35;14.65;;;;;;;38.91;16.06;102099.81;5284022;28;20025;-79